Time;durP1;ratioP1;P1;durP2;ratioP2;P2;SDS_P1;SDS_P2;PMS_P1;PMS_P2;Temp;Humidity;BMP_temperature;BMP_pressure;BME280_temperature;BME280_humidity;BME280_pressure;Samples;Min_cycle;Max_cycle;Signal;HPM_P1;HPM_P2
2021/12/19 00:02:27;;;;;;;8.27;5.97;;;4.80;99.90;;;;;;5138051;27;20237;-70
2021/12/19 00:10:24;;;;;;;10.13;6.47;;;4.90;99.90;;;;;;5137612;27;20690;-71
2021/12/19 00:12:52;;;;;;;7.23;5.90;;;4.90;99.90;;;;;;5143573;27;20203;-69
2021/12/19 00:15:19;;;;;;;9.97;5.97;;;4.90;99.90;;;;;;5137039;27;20237;-71
2021/12/19 00:17:46;;;;;;;7.57;5.47;;;4.90;99.90;;;;;;5137763;27;20228;-71
2021/12/19 00:20:15;;;;;;;6.80;5.10;;;4.90;99.90;;;;;;5137224;27;20214;-70
2021/12/19 00:22:42;;;;;;;7.17;5.30;;;4.80;99.90;;;;;;5136973;27;20256;-71
2021/12/19 00:25:09;;;;;;;7.63;5.33;;;4.90;99.90;;;;;;5136389;27;20289;-70
2021/12/19 00:27:36;;;;;;;7.53;5.07;;;4.90;99.90;;;;;;5146086;27;20268;-71
2021/12/19 00:30:04;;;;;;;6.60;5.03;;;4.90;99.90;;;;;;5137090;27;20674;-71
2021/12/19 00:32:31;;;;;;;9.83;5.83;;;4.90;99.90;;;;;;5143083;27;20230;-69
2021/12/19 00:34:58;;;;;;;7.63;5.87;;;4.90;99.90;;;;;;5146118;27;20268;-69
2021/12/19 00:37:26;;;;;;;7.27;5.17;;;4.90;99.90;;;;;;5136475;27;20227;-69
2021/12/19 00:39:53;;;;;;;7.23;5.20;;;4.90;99.90;;;;;;5137202;27;20231;-69
2021/12/19 00:42:31;;;;;;;7.33;5.77;;;4.80;99.90;;;;;;5137708;27;20238;-69
2021/12/19 00:45:01;;;;;;;7.00;5.63;;;4.80;99.90;;;;;;5137175;27;20207;-69
2021/12/19 00:47:29;;;;;;;7.73;5.63;;;4.70;99.90;;;;;;5135395;27;20222;-68
2021/12/19 00:49:56;;;;;;;7.50;5.50;;;4.70;99.90;;;;;;5136817;27;20490;-69
2021/12/19 00:52:23;;;;;;;8.30;5.63;;;4.70;99.90;;;;;;5137340;27;20286;-70
2021/12/19 00:54:52;;;;;;;7.03;4.67;;;4.70;99.90;;;;;;5140226;27;20652;-70
2021/12/19 00:57:18;;;;;;;6.90;4.90;;;4.70;99.90;;;;;;5127017;27;20318;-70
2021/12/19 00:59:45;;;;;;;8.07;5.20;;;4.70;99.90;;;;;;5123496;27;20288;-71
2021/12/19 01:02:12;;;;;;;5.77;4.50;;;4.70;99.90;;;;;;5136640;27;20286;-71
2021/12/19 01:04:39;;;;;;;6.83;4.40;;;4.70;99.90;;;;;;5137585;27;20203;-71
2021/12/19 01:07:06;;;;;;;4.33;3.70;;;4.70;99.90;;;;;;5131430;27;20253;-69
2021/12/19 01:09:34;;;;;;;4.63;3.87;;;4.60;99.90;;;;;;5129472;27;20203;-70
2021/12/19 01:12:03;;;;;;;5.17;3.80;;;4.60;99.90;;;;;;5139058;27;20575;-72
2021/12/19 01:14:30;;;;;;;5.03;3.73;;;4.60;99.90;;;;;;5136935;27;20668;-70
2021/12/19 01:16:57;;;;;;;5.30;3.17;;;4.60;99.90;;;;;;5136318;27;20242;-70
2021/12/19 01:19:24;;;;;;;4.43;3.20;;;4.60;99.90;;;;;;5137859;27;20929;-70
2021/12/19 01:21:51;;;;;;;3.13;2.83;;;4.60;99.90;;;;;;5137386;27;20211;-71
2021/12/19 01:24:18;;;;;;;7.10;3.57;;;4.60;99.90;;;;;;5136024;27;20209;-70
2021/12/19 01:26:45;;;;;;;5.20;3.67;;;4.50;99.90;;;;;;5135977;27;20335;-70
2021/12/19 01:29:14;;;;;;;4.30;3.87;;;4.50;99.90;;;;;;5135434;27;20286;-70
2021/12/19 01:31:41;;;;;;;4.57;4.00;;;4.50;99.90;;;;;;5135772;27;20284;-70
2021/12/19 01:34:12;;;;;;;3.70;3.30;;;4.50;99.90;;;;;;5136201;27;20231;-70
2021/12/19 01:36:40;;;;;;;5.17;3.77;;;4.50;99.90;;;;;;5128279;27;20534;-71
2021/12/19 01:39:07;;;;;;;4.83;3.63;;;4.50;99.90;;;;;;5135654;27;20219;-70
2021/12/19 01:41:34;;;;;;;3.93;3.40;;;4.50;99.90;;;;;;5136674;27;20238;-71
2021/12/19 01:44:01;;;;;;;4.50;4.03;;;4.40;99.90;;;;;;5134661;27;20252;-70
2021/12/19 01:46:29;;;;;;;4.57;3.57;;;4.50;99.90;;;;;;5128859;27;20212;-71
2021/12/19 01:48:56;;;;;;;6.17;3.70;;;4.40;99.90;;;;;;5131431;27;20239;-69
2021/12/19 01:51:23;;;;;;;5.47;4.10;;;4.40;99.90;;;;;;5136348;27;20292;-70
2021/12/19 01:53:50;;;;;;;5.13;4.00;;;4.50;99.90;;;;;;5135970;27;20262;-70
2021/12/19 01:56:17;;;;;;;4.07;3.67;;;4.50;99.90;;;;;;5136627;27;20252;-71
2021/12/19 01:58:46;;;;;;;4.77;3.73;;;4.50;99.90;;;;;;5135894;27;20295;-69
2021/12/19 02:01:14;;;;;;;5.13;3.93;;;4.50;99.90;;;;;;5136166;27;20203;-69
2021/12/19 02:03:42;;;;;;;5.43;4.03;;;4.50;99.90;;;;;;5121531;27;20676;-69
2021/12/19 02:06:09;;;;;;;5.00;3.50;;;4.50;99.90;;;;;;5136142;27;20302;-69
2021/12/19 02:08:36;;;;;;;3.73;3.20;;;4.50;99.90;;;;;;5135451;27;20242;-69
2021/12/19 02:11:03;;;;;;;3.73;3.33;;;4.50;99.90;;;;;;5144496;27;20227;-69
2021/12/19 02:13:30;;;;;;;4.17;3.50;;;4.50;99.90;;;;;;5135775;27;20278;-70
2021/12/19 02:15:57;;;;;;;3.73;3.17;;;4.40;99.90;;;;;;5145017;27;20445;-69
2021/12/19 02:18:24;;;;;;;3.43;3.13;;;4.50;99.90;;;;;;5140446;27;20262;-70
2021/12/19 02:20:55;;;;;;;4.40;3.47;;;4.40;99.90;;;;;;5136354;27;20589;-70
2021/12/19 02:23:25;;;;;;;4.10;3.30;;;4.40;99.90;;;;;;5139206;27;20656;-70
2021/12/19 02:25:53;;;;;;;4.30;3.13;;;4.40;99.90;;;;;;5135879;27;20270;-71
2021/12/19 02:28:20;;;;;;;4.63;2.90;;;4.40;99.90;;;;;;5134576;27;20699;-71
2021/12/19 02:30:48;;;;;;;5.07;3.60;;;4.40;99.90;;;;;;5134722;27;20654;-70
2021/12/19 02:33:23;;;;;;;3.27;2.90;;;4.40;99.90;;;;;;5134715;27;20215;-69
2021/12/19 02:35:59;;;;;;;4.00;2.80;;;4.40;99.90;;;;;;5130303;27;20683;-70
2021/12/19 02:49:33;;;;;;;4.23;3.23;;;4.50;99.90;;;;;;5123875;27;20487;-70
2021/12/19 02:52:05;;;;;;;3.93;3.20;;;4.40;99.90;;;;;;5139638;27;20249;-71
2021/12/19 02:54:32;;;;;;;3.83;3.10;;;4.40;99.90;;;;;;5134152;27;20215;-70
2021/12/19 02:56:59;;;;;;;4.20;3.23;;;4.50;99.90;;;;;;5134935;27;20258;-70
2021/12/19 02:59:26;;;;;;;4.17;2.97;;;4.50;99.90;;;;;;5135089;27;20314;-69
2021/12/19 03:01:54;;;;;;;4.73;3.60;;;4.40;99.90;;;;;;5139328;27;20746;-69
2021/12/19 03:04:22;;;;;;;4.33;3.10;;;4.50;99.90;;;;;;5142746;27;20227;-70
2021/12/19 03:06:49;;;;;;;4.63;3.40;;;4.50;99.90;;;;;;5133441;27;20211;-69
2021/12/19 03:09:35;;;;;;;3.20;2.87;;;4.50;99.90;;;;;;5145056;27;20301;-70
2021/12/19 03:12:09;;;;;;;3.63;3.10;;;4.50;99.90;;;;;;5135156;27;20206;-69
2021/12/19 03:20:09;;;;;;;4.13;3.33;;;4.60;99.90;;;;;;5147755;27;20406;-70
2021/12/19 03:22:37;;;;;;;3.47;3.17;;;4.60;99.90;;;;;;5144008;27;20306;-71
2021/12/19 03:25:06;;;;;;;3.47;2.67;;;4.60;99.90;;;;;;5133352;27;20274;-70
2021/12/19 03:27:33;;;;;;;3.30;3.00;;;4.60;99.90;;;;;;5140081;27;20256;-69
2021/12/19 03:30:00;;;;;;;2.97;2.43;;;4.60;99.90;;;;;;5141439;27;20238;-69
2021/12/19 03:32:27;;;;;;;2.93;2.60;;;4.60;99.90;;;;;;5134214;27;20671;-69
2021/12/19 03:34:54;;;;;;;3.60;2.70;;;4.70;99.90;;;;;;5131664;27;20223;-69
2021/12/19 03:37:21;;;;;;;3.87;2.90;;;4.60;99.90;;;;;;5134248;27;20679;-70
2021/12/19 03:39:57;;;;;;;2.90;2.60;;;4.60;99.90;;;;;;5133575;27;20264;-69
2021/12/19 03:42:27;;;;;;;3.17;2.80;;;4.60;99.90;;;;;;5133824;27;20203;-70
2021/12/19 03:44:54;;;;;;;3.30;2.70;;;4.70;99.90;;;;;;5133081;27;20230;-68
2021/12/19 03:47:21;;;;;;;2.80;2.47;;;4.70;99.90;;;;;;5133562;27;20318;-70
2021/12/19 03:49:48;;;;;;;4.20;3.23;;;4.70;99.90;;;;;;5132923;27;20298;-69
2021/12/19 03:52:15;;;;;;;3.43;2.60;;;4.70;99.90;;;;;;5133205;27;20250;-70
2021/12/19 03:54:42;;;;;;;2.90;2.60;;;4.70;99.90;;;;;;5135108;27;20294;-69
2021/12/19 03:57:09;;;;;;;2.93;2.60;;;4.70;99.90;;;;;;5145513;27;20226;-70
2021/12/19 03:59:40;;;;;;;2.53;2.30;;;4.70;99.90;;;;;;5133523;27;20680;-68
2021/12/19 04:02:07;;;;;;;3.40;2.60;;;4.70;99.90;;;;;;5133582;27;20199;-69
2021/12/19 04:04:38;;;;;;;5.43;2.67;;;4.70;99.90;;;;;;5131996;27;20241;-70
2021/12/19 04:07:05;;;;;;;2.90;2.33;;;4.70;99.90;;;;;;5141944;27;20202;-69
2021/12/19 04:09:32;;;;;;;3.27;2.60;;;4.80;99.90;;;;;;5133539;28;20230;-69
2021/12/19 04:11:59;;;;;;;2.60;2.30;;;4.80;99.90;;;;;;5132721;27;20286;-68
2021/12/19 04:14:26;;;;;;;2.60;2.27;;;4.80;99.90;;;;;;5132742;27;20253;-69
2021/12/19 04:16:54;;;;;;;2.63;2.43;;;4.80;99.90;;;;;;5132739;27;20645;-69
2021/12/19 04:19:21;;;;;;;2.77;2.00;;;4.90;99.90;;;;;;5132130;27;20263;-69
2021/12/19 04:21:48;;;;;;;2.63;2.30;;;4.90;99.90;;;;;;5119537;27;20195;-69
2021/12/19 04:24:15;;;;;;;3.30;2.90;;;4.90;99.90;;;;;;5150647;27;20206;-69
2021/12/19 04:26:42;;;;;;;2.83;2.03;;;4.90;99.90;;;;;;5138826;27;20731;-70
2021/12/19 04:29:10;;;;;;;3.53;2.30;;;4.90;99.90;;;;;;5132375;27;20282;-69
2021/12/19 04:31:37;;;;;;;3.50;2.27;;;4.90;99.90;;;;;;5133001;27;20219;-69
2021/12/19 04:34:05;;;;;;;2.20;2.00;;;4.90;99.90;;;;;;5132788;27;20204;-69
2021/12/19 04:36:37;;;;;;;2.80;2.27;;;5.00;99.90;;;;;;5138188;27;20231;-69
2021/12/19 04:58:47;;;;;;;4.57;2.93;;;5.10;99.90;;;;;;5132253;27;20202;-69
2021/12/19 05:01:28;;;;;;;2.80;2.40;;;5.10;99.90;;;;;;5135353;27;20671;-69
2021/12/19 05:04:07;;;;;;;3.77;2.97;;;5.20;99.90;;;;;;5123434;27;20195;-68
2021/12/19 05:14:00;;;;;;;4.70;3.33;;;5.20;99.90;;;;;;5134981;27;20235;-68
2021/12/19 05:15:12;;;;;;;4.10;3.43;;;5.20;99.90;;;;;;5137506;27;20945;-69
2021/12/19 05:17:39;;;;;;;5.20;3.70;;;5.30;99.90;;;;;;5135359;27;20887;-70
2021/12/19 05:20:14;;;;;;;6.43;4.20;;;5.20;99.90;;;;;;5135975;27;20246;-69
2021/12/19 05:22:47;;;;;;;6.07;4.73;;;5.20;99.90;;;;;;5128470;27;20203;-69
2021/12/19 05:25:17;;;;;;;5.93;4.73;;;5.30;99.90;;;;;;5135077;27;20325;-70
2021/12/19 05:27:45;;;;;;;6.80;4.50;;;5.30;99.90;;;;;;5136454;27;20203;-70
2021/12/19 05:30:14;;;;;;;8.73;5.07;;;5.30;99.90;;;;;;5135793;27;20294;-69
2021/12/19 05:32:42;;;;;;;7.67;5.13;;;5.40;99.90;;;;;;5135769;27;20238;-69
2021/12/19 05:35:11;;;;;;;8.53;5.80;;;5.40;99.90;;;;;;5136315;27;20294;-69
2021/12/19 05:45:53;;;;;;;8.73;5.20;;;5.50;99.90;;;;;;5136062;27;20567;-70
2021/12/19 05:48:20;;;;;;;6.27;5.17;;;5.60;99.90;;;;;;5135652;27;20226;-70
2021/12/19 05:50:47;;;;;;;6.97;5.23;;;5.60;99.90;;;;;;5135734;27;20267;-71
2021/12/19 05:53:15;;;;;;;8.33;4.90;;;5.60;99.90;;;;;;5130742;27;20252;-70
2021/12/19 05:55:43;;;;;;;8.00;5.50;;;5.60;99.90;;;;;;5146028;27;20765;-69
2021/12/19 05:58:10;;;;;;;8.67;5.63;;;5.70;99.90;;;;;;5138101;27;20211;-69
2021/12/19 06:00:38;;;;;;;9.33;5.60;;;5.60;99.90;;;;;;5139372;27;20583;-68
2021/12/19 06:03:05;;;;;;;6.77;4.90;;;5.70;99.90;;;;;;5139312;27;20239;-69
2021/12/19 06:05:32;;;;;;;8.20;5.63;;;5.70;99.90;;;;;;5134698;27;20282;-69
2021/12/19 06:07:59;;;;;;;9.10;5.50;;;5.70;99.90;;;;;;5134536;27;20283;-69
2021/12/19 06:10:28;;;;;;;9.37;4.73;;;5.70;99.90;;;;;;5134804;27;20229;-69
2021/12/19 06:12:59;;;;;;;7.30;4.67;;;5.70;99.90;;;;;;5134441;27;20711;-70
2021/12/19 06:15:26;;;;;;;6.00;4.37;;;5.80;99.90;;;;;;5138485;27;20233;-68
2021/12/19 06:17:53;;;;;;;7.40;4.87;;;5.80;99.90;;;;;;5141960;27;20207;-68
2021/12/19 06:20:20;;;;;;;7.27;4.33;;;5.80;99.90;;;;;;5136819;27;20266;-69
2021/12/19 06:22:47;;;;;;;7.33;4.60;;;5.80;99.90;;;;;;5134406;27;20239;-69
2021/12/19 06:25:14;;;;;;;9.20;5.10;;;5.80;99.90;;;;;;5133330;27;20277;-69
2021/12/19 06:27:41;;;;;;;8.67;4.43;;;5.80;99.90;;;;;;5134370;27;20723;-69
2021/12/19 06:30:11;;;;;;;5.73;4.00;;;5.80;99.90;;;;;;5133784;27;20295;-69
2021/12/19 06:32:38;;;;;;;6.43;4.20;;;5.80;99.90;;;;;;5135608;27;20322;-69
2021/12/19 06:35:10;;;;;;;9.57;4.03;;;5.80;99.90;;;;;;5141542;27;20291;-69
2021/12/19 06:37:38;;;;;;;6.23;3.63;;;5.80;99.90;;;;;;5134216;27;20670;-70
2021/12/19 06:40:08;;;;;;;5.80;4.23;;;5.80;99.90;;;;;;5133598;27;20219;-69
2021/12/19 06:42:35;;;;;;;5.30;3.80;;;5.80;99.90;;;;;;5138138;27;20666;-71
2021/12/19 06:45:02;;;;;;;4.13;3.33;;;5.90;99.90;;;;;;5144474;27;20199;-70
2021/12/19 06:47:30;;;;;;;5.27;3.70;;;5.90;99.90;;;;;;5138493;27;20626;-70
2021/12/19 06:49:58;;;;;;;5.40;3.63;;;5.90;99.90;;;;;;5134969;27;20306;-71
2021/12/19 06:52:25;;;;;;;5.63;4.10;;;5.90;99.90;;;;;;5134447;27;20251;-69
2021/12/19 06:54:52;;;;;;;4.87;3.27;;;5.90;99.90;;;;;;5146932;27;20223;-72
2021/12/19 06:57:19;;;;;;;3.27;2.77;;;5.90;99.90;;;;;;5145759;27;20293;-73
2021/12/19 06:59:47;;;;;;;5.97;3.33;;;5.90;99.90;;;;;;5135843;27;20317;-73
2021/12/19 07:02:16;;;;;;;4.80;2.97;;;5.90;99.90;;;;;;5134039;27;20203;-76
2021/12/19 07:04:45;;;;;;;5.00;2.83;;;5.90;99.90;;;;;;5139020;27;20207;-75
2021/12/19 07:07:13;;;;;;;5.63;3.00;;;5.90;99.90;;;;;;5136013;27;20287;-74
2021/12/19 07:09:41;;;;;;;8.40;2.73;;;5.90;99.90;;;;;;5146544;27;20258;-74
2021/12/19 07:12:09;;;;;;;3.73;2.67;;;5.90;99.90;;;;;;5137020;27;20207;-79
2021/12/19 07:14:36;;;;;;;5.33;3.10;;;6.10;99.90;;;;;;5135812;27;20285;-76
2021/12/19 07:17:03;;;;;;;5.20;3.30;;;5.90;99.90;;;;;;5147457;27;20234;-78
2021/12/19 07:19:30;;;;;;;4.93;2.63;;;5.90;99.90;;;;;;5138796;27;20640;-79
2021/12/19 07:22:00;;;;;;;5.63;3.07;;;5.90;99.90;;;;;;5139531;27;20211;-78
2021/12/19 07:24:27;;;;;;;4.87;3.10;;;5.90;99.90;;;;;;5140088;27;20256;-80
2021/12/19 07:26:54;;;;;;;6.30;3.07;;;5.90;99.90;;;;;;5135958;27;20242;-74
2021/12/19 07:29:23;;;;;;;4.10;2.80;;;5.90;99.90;;;;;;5133890;27;20435;-70
2021/12/19 07:31:50;;;;;;;6.83;3.63;;;5.90;99.90;;;;;;5133584;27;20285;-70
2021/12/19 07:34:17;;;;;;;6.83;3.77;;;5.90;99.90;;;;;;5135941;27;20712;-70
2021/12/19 07:36:50;;;;;;;4.97;3.53;;;5.90;99.90;;;;;;5142116;27;20198;-71
2021/12/19 07:39:26;;;;;;;5.87;3.77;;;5.90;99.90;;;;;;5147769;27;20289;-71
2021/12/19 07:41:53;;;;;;;4.97;3.83;;;5.90;99.90;;;;;;5151669;27;20198;-71
2021/12/19 07:44:21;;;;;;;6.80;3.23;;;5.90;99.90;;;;;;5144731;27;20198;-69
2021/12/19 07:46:49;;;;;;;7.53;3.80;;;5.90;99.90;;;;;;5143460;27;20248;-74
2021/12/19 07:49:16;;;;;;;4.83;2.90;;;5.90;99.90;;;;;;5132875;28;20621;-76
2021/12/19 07:51:43;;;;;;;9.00;3.97;;;6.00;99.90;;;;;;5142704;27;20208;-73
2021/12/19 07:54:10;;;;;;;7.43;3.43;;;5.90;99.90;;;;;;5143743;27;20256;-75
2021/12/19 07:56:39;;;;;;;5.93;3.90;;;5.90;99.90;;;;;;5135770;27;20219;-75
2021/12/19 07:59:06;;;;;;;5.77;3.93;;;5.90;99.90;;;;;;5137382;27;20227;-75
2021/12/19 08:01:34;;;;;;;6.30;4.07;;;5.90;99.90;;;;;;5141713;27;20294;-75
2021/12/19 08:04:00;;;;;;;5.57;3.83;;;6.00;99.90;;;;;;5134874;27;20230;-77
2021/12/19 08:06:28;;;;;;;7.00;3.50;;;6.00;99.90;;;;;;5144324;27;20287;-74
2021/12/19 08:08:57;;;;;;;6.27;3.57;;;6.00;99.90;;;;;;5131105;28;20241;-74
2021/12/19 08:11:42;;;;;;;5.53;3.80;;;6.00;99.90;;;;;;5124884;28;20640;-73
2021/12/19 08:14:13;;;;;;;5.27;3.33;;;6.00;99.90;;;;;;5122883;27;20203;-73
2021/12/19 08:16:41;;;;;;;6.73;3.60;;;6.00;99.90;;;;;;5126063;28;20621;-74
2021/12/19 08:19:09;;;;;;;8.10;3.87;;;6.00;99.90;;;;;;5131717;27;20289;-68
2021/12/19 08:21:36;;;;;;;5.30;3.67;;;6.00;99.90;;;;;;5134761;27;20230;-69
2021/12/19 08:24:08;;;;;;;6.00;3.20;;;6.00;99.90;;;;;;5135101;27;20290;-68
2021/12/19 08:26:35;;;;;;;8.17;4.13;;;6.10;99.90;;;;;;5134994;27;20239;-69
2021/12/19 08:29:02;;;;;;;8.87;4.73;;;6.10;99.90;;;;;;5134461;27;20207;-69
2021/12/19 08:31:30;;;;;;;7.60;4.37;;;6.10;99.90;;;;;;5137176;27;20238;-69
2021/12/19 08:33:58;;;;;;;4.57;3.70;;;6.10;99.90;;;;;;5137465;27;20314;-71
2021/12/19 08:36:25;;;;;;;8.87;4.50;;;6.10;99.90;;;;;;5130217;27;20567;-70
2021/12/19 08:38:52;;;;;;;9.73;4.60;;;6.10;99.90;;;;;;5127438;27;20274;-70
2021/12/19 08:41:19;;;;;;;6.07;3.30;;;6.10;99.90;;;;;;5135697;27;20751;-71
2021/12/19 08:43:46;;;;;;;7.00;3.20;;;6.20;99.90;;;;;;5135167;27;20213;-68
2021/12/19 08:46:13;;;;;;;6.23;3.83;;;6.20;99.90;;;;;;5140738;27;20199;-71
2021/12/19 08:48:42;;;;;;;6.87;3.60;;;6.20;99.90;;;;;;5132784;27;20203;-69
2021/12/19 08:51:09;;;;;;;9.00;4.00;;;6.20;99.90;;;;;;5150647;27;20293;-70
2021/12/19 08:53:36;;;;;;;8.53;3.60;;;6.20;99.90;;;;;;5134701;27;20667;-71
2021/12/19 08:56:04;;;;;;;4.83;3.00;;;6.20;99.90;;;;;;5133685;27;20631;-70
2021/12/19 08:58:31;;;;;;;4.20;3.30;;;6.20;99.90;;;;;;5134473;27;20226;-69
2021/12/19 09:01:01;;;;;;;5.23;3.47;;;6.30;99.90;;;;;;5133616;27;20302;-68
2021/12/19 09:03:29;;;;;;;4.60;3.10;;;6.20;99.90;;;;;;5133862;27;20251;-67
2021/12/19 09:05:58;;;;;;;8.40;4.23;;;6.30;99.90;;;;;;5133599;27;20436;-68
2021/12/19 09:08:25;;;;;;;5.07;2.80;;;6.20;99.90;;;;;;5133998;27;20633;-68
2021/12/19 09:10:52;;;;;;;4.67;2.73;;;6.30;99.90;;;;;;5135342;27;20302;-69
2021/12/19 09:13:19;;;;;;;5.73;2.07;;;6.20;99.90;;;;;;5134841;27;20211;-68
2021/12/19 09:15:46;;;;;;;8.10;2.50;;;6.20;99.90;;;;;;5134188;27;20229;-69
2021/12/19 09:18:13;;;;;;;5.80;3.00;;;6.20;99.90;;;;;;5147882;27;20209;-67
2021/12/19 09:20:40;;;;;;;5.13;2.30;;;6.30;99.90;;;;;;5134384;27;20295;-68
2021/12/19 09:23:08;;;;;;;4.60;2.23;;;6.30;99.90;;;;;;5135000;27;20703;-66
2021/12/19 09:25:36;;;;;;;5.03;2.57;;;6.20;99.90;;;;;;5134310;27;20242;-68
2021/12/19 09:28:04;;;;;;;4.70;2.43;;;6.20;99.90;;;;;;5125134;27;20286;-72
2021/12/19 09:30:31;;;;;;;4.93;3.00;;;6.20;99.90;;;;;;5131145;27;20744;-68
2021/12/19 09:32:58;;;;;;;6.47;2.80;;;6.20;99.90;;;;;;5132892;27;20314;-70
2021/12/19 09:35:25;;;;;;;3.87;2.17;;;6.20;99.90;;;;;;5139334;27;20751;-70
2021/12/19 09:37:52;;;;;;;6.50;2.10;;;6.20;99.90;;;;;;5136068;27;20279;-69
2021/12/19 09:40:21;;;;;;;4.30;2.60;;;6.30;99.90;;;;;;5136847;27;20215;-70
2021/12/19 09:42:50;;;;;;;4.87;2.47;;;6.20;99.90;;;;;;5136160;27;20203;-68
2021/12/19 09:45:19;;;;;;;6.23;2.57;;;6.30;99.90;;;;;;5147440;27;20206;-67
2021/12/19 09:47:46;;;;;;;6.40;2.30;;;6.30;99.90;;;;;;5134057;27;20751;-67
2021/12/19 09:50:14;;;;;;;6.20;2.47;;;6.30;99.90;;;;;;5133418;27;20290;-67
2021/12/19 09:52:41;;;;;;;9.17;3.10;;;6.30;99.90;;;;;;5136950;27;20214;-70
2021/12/19 09:55:10;;;;;;;3.93;2.00;;;6.30;99.90;;;;;;5134231;27;20638;-70
2021/12/19 09:57:38;;;;;;;5.03;2.67;;;6.40;99.90;;;;;;5133430;27;20387;-68
2021/12/19 10:00:06;;;;;;;3.53;1.97;;;6.50;99.90;;;;;;5133667;27;20282;-72
2021/12/19 10:02:33;;;;;;;7.43;2.67;;;6.60;99.90;;;;;;5133320;27;20207;-70
2021/12/19 10:05:15;;;;;;;5.37;2.30;;;6.70;99.90;;;;;;5133451;27;20239;-70
2021/12/19 10:07:47;;;;;;;4.93;2.30;;;6.70;99.90;;;;;;5133054;27;20199;-75
2021/12/19 10:10:24;;;;;;;3.60;2.77;;;6.70;99.90;;;;;;5121321;27;20203;-74
2021/12/19 10:12:54;;;;;;;6.13;2.27;;;6.70;99.90;;;;;;5134495;27;20203;-70
2021/12/19 10:15:31;;;;;;;4.63;2.50;;;6.70;99.90;;;;;;5133894;27;20195;-72
2021/12/19 10:18:04;;;;;;;7.97;2.70;;;6.70;99.90;;;;;;5132590;27;20289;-72
2021/12/19 10:20:42;;;;;;;3.53;2.07;;;6.70;99.90;;;;;;5123432;27;20258;-71
2021/12/19 10:23:15;;;;;;;5.97;2.20;;;6.70;99.90;;;;;;5132472;27;20652;-71
2021/12/19 10:25:43;;;;;;;9.90;2.63;;;6.70;99.90;;;;;;5131150;27;20314;-72
2021/12/19 10:28:12;;;;;;;3.67;2.30;;;6.70;99.90;;;;;;5131815;27;20322;-71
2021/12/19 10:30:43;;;;;;;6.03;2.97;;;6.70;99.90;;;;;;5133939;27;20682;-72
2021/12/19 10:33:12;;;;;;;4.00;2.70;;;6.70;99.90;;;;;;5133604;27;20210;-72
2021/12/19 10:35:43;;;;;;;4.80;2.50;;;6.70;99.90;;;;;;5134537;27;20639;-71
2021/12/19 10:38:15;;;;;;;8.27;2.80;;;6.70;99.90;;;;;;5134377;27;20290;-71
2021/12/19 10:40:46;;;;;;;5.33;2.53;;;6.80;99.90;;;;;;5133593;27;20254;-72
2021/12/19 10:43:17;;;;;;;3.57;2.07;;;6.80;99.90;;;;;;5132323;27;20243;-72
2021/12/19 10:45:47;;;;;;;3.00;1.87;;;6.90;99.90;;;;;;5132923;27;20634;-71
2021/12/19 10:48:23;;;;;;;6.93;2.20;;;6.90;99.90;;;;;;5132824;27;20234;-71
2021/12/19 10:50:54;;;;;;;8.60;3.03;;;6.90;99.90;;;;;;5132704;27;20714;-69
2021/12/19 10:53:27;;;;;;;5.87;2.33;;;6.90;99.90;;;;;;5142350;27;20655;-71
2021/12/19 10:55:55;;;;;;;4.10;2.37;;;6.90;99.90;;;;;;5141447;27;20628;-71
2021/12/19 10:58:31;;;;;;;5.63;2.13;;;6.90;99.90;;;;;;5137966;27;20623;-72
2021/12/19 11:01:29;;;;;;;5.63;2.23;;;6.90;99.90;;;;;;5147174;27;20774;-71
2021/12/19 11:04:02;;;;;;;7.20;2.63;;;6.90;99.90;;;;;;5121392;27;20211;-72
2021/12/19 11:06:32;;;;;;;5.07;2.80;;;6.90;99.90;;;;;;5127924;27;20553;-72
2021/12/19 11:09:01;;;;;;;4.47;2.30;;;6.90;99.90;;;;;;5134020;27;20223;-71
2021/12/19 11:11:35;;;;;;;6.53;2.47;;;6.90;99.90;;;;;;5132754;27;20234;-71
2021/12/19 11:14:04;;;;;;;5.20;2.53;;;6.90;99.90;;;;;;5120496;27;20203;-72
2021/12/19 11:16:31;;;;;;;3.47;2.03;;;6.90;99.90;;;;;;5132906;27;20218;-72
2021/12/19 11:18:58;;;;;;;3.53;2.10;;;6.90;99.90;;;;;;5134748;27;20230;-71
2021/12/19 11:21:25;;;;;;;6.13;2.20;;;6.90;99.90;;;;;;5141507;27;20234;-72
2021/12/19 11:23:52;;;;;;;8.40;2.70;;;6.90;99.90;;;;;;5133434;27;20259;-71
2021/12/19 11:26:21;;;;;;;4.87;2.17;;;6.90;99.90;;;;;;5133266;27;20576;-71
2021/12/19 11:28:49;;;;;;;4.90;2.40;;;6.90;99.90;;;;;;5133729;27;20206;-70
2021/12/19 11:31:19;;;;;;;8.17;2.90;;;6.90;99.90;;;;;;5142010;27;20230;-71
2021/12/19 11:34:01;;;;;;;5.20;2.30;;;7.00;99.90;;;;;;5137705;27;20267;-71
2021/12/19 11:36:34;;;;;;;5.20;2.17;;;6.90;99.90;;;;;;5132905;27;20671;-71
2021/12/19 11:39:03;;;;;;;5.77;2.40;;;6.90;99.90;;;;;;5133252;27;20242;-71
2021/12/19 11:41:31;;;;;;;5.07;2.83;;;6.90;99.90;;;;;;5136176;27;20317;-71
2021/12/19 11:44:01;;;;;;;4.03;2.60;;;7.00;99.90;;;;;;5138641;27;20624;-71
2021/12/19 11:46:50;;;;;;;8.37;3.27;;;6.90;99.90;;;;;;5133239;27;20187;-71
2021/12/19 11:49:21;;;;;;;4.77;2.53;;;7.00;99.90;;;;;;5132695;27;20314;-72
2021/12/19 11:52:10;;;;;;;5.47;3.00;;;6.90;99.90;;;;;;5120214;27;20407;-72
2021/12/19 11:54:37;;;;;;;3.70;2.33;;;7.00;99.90;;;;;;5132731;27;20230;-73
2021/12/19 11:57:09;;;;;;;6.93;2.70;;;6.90;99.90;;;;;;5141122;27;20734;-72
2021/12/19 11:59:37;;;;;;;8.17;3.10;;;6.90;99.90;;;;;;5142542;27;20658;-70
2021/12/19 12:02:23;;;;;;;8.73;2.60;;;6.90;99.90;;;;;;5137086;27;20301;-71
2021/12/19 12:05:21;;;;;;;6.37;3.00;;;6.90;99.90;;;;;;5137355;27;20285;-72
2021/12/19 12:08:13;;;;;;;4.33;2.13;;;6.90;99.90;;;;;;5082545;27;20214;-73
2021/12/19 12:11:17;;;;;;;5.50;2.70;;;6.90;99.90;;;;;;5137607;27;20311;-71
2021/12/19 12:13:44;;;;;;;8.83;2.70;;;6.80;99.90;;;;;;5135259;27;20723;-71
2021/12/19 12:16:38;;;;;;;7.30;2.83;;;6.80;99.90;;;;;;5137231;27;20231;-71
2021/12/19 12:19:07;;;;;;;7.50;2.43;;;6.80;99.90;;;;;;5129802;27;20695;-72
2021/12/19 12:21:41;;;;;;;7.87;2.97;;;6.80;99.90;;;;;;5136252;27;20230;-71
2021/12/19 12:24:17;;;;;;;9.87;3.90;;;6.70;99.90;;;;;;5136176;27;20211;-71
2021/12/19 12:26:58;;;;;;;5.47;2.40;;;6.70;99.90;;;;;;5136516;27;20262;-70
2021/12/19 12:29:25;;;;;;;8.83;2.90;;;6.70;99.90;;;;;;5137355;27;20195;-71
2021/12/19 12:31:54;;;;;;;6.50;2.63;;;6.70;99.90;;;;;;5136923;27;20230;-71
2021/12/19 12:34:22;;;;;;;5.57;2.70;;;6.70;99.90;;;;;;5136619;27;20207;-71
2021/12/19 12:36:51;;;;;;;9.80;2.80;;;6.70;99.90;;;;;;5141485;27;20710;-72
2021/12/19 12:39:21;;;;;;;7.57;2.90;;;6.70;99.90;;;;;;5136463;27;20994;-72
2021/12/19 12:41:58;;;;;;;9.33;3.30;;;6.70;99.90;;;;;;5132071;27;20528;-70
2021/12/19 12:44:25;;;;;;;7.00;2.97;;;6.60;99.90;;;;;;5132604;27;20231;-71
2021/12/19 12:46:53;;;;;;;8.23;2.93;;;6.70;99.90;;;;;;5133323;27;20285;-73
2021/12/19 12:49:24;;;;;;;7.17;2.67;;;6.60;99.90;;;;;;5139224;27;20242;-73
2021/12/19 12:52:01;;;;;;;6.40;3.53;;;6.60;99.90;;;;;;5129167;27;20199;-74
2021/12/19 12:54:33;;;;;;;5.03;2.60;;;6.60;99.90;;;;;;5131384;27;20198;-71
2021/12/19 12:57:01;;;;;;;6.23;3.10;;;6.60;99.90;;;;;;5149941;27;20243;-73
2021/12/19 12:59:30;;;;;;;5.13;2.40;;;6.60;99.90;;;;;;5142344;27;20623;-72
2021/12/19 13:02:08;;;;;;;5.60;3.47;;;6.50;99.90;;;;;;5148097;27;20233;-72
2021/12/19 13:04:37;;;;;;;8.27;2.70;;;6.60;99.90;;;;;;5141098;27;20199;-73
2021/12/19 13:07:05;;;;;;;6.03;2.70;;;6.50;99.90;;;;;;5136235;27;20222;-72
2021/12/19 13:09:35;;;;;;;6.30;2.73;;;6.50;99.90;;;;;;5126662;27;20299;-71
2021/12/19 13:12:06;;;;;;;6.03;2.73;;;6.50;99.90;;;;;;5134718;27;20203;-72
2021/12/19 13:14:35;;;;;;;7.07;2.50;;;6.50;99.90;;;;;;5125640;27;20267;-72
2021/12/19 13:17:04;;;;;;;6.90;2.70;;;6.50;99.90;;;;;;5134317;27;20294;-70
2021/12/19 13:19:56;;;;;;;6.17;2.17;;;6.40;99.90;;;;;;5133895;27;20707;-72
2021/12/19 13:22:30;;;;;;;6.57;2.50;;;6.40;99.90;;;;;;5143790;27;20207;-72
2021/12/19 13:25:10;;;;;;;6.67;2.83;;;6.40;99.90;;;;;;5140645;27;20321;-72
2021/12/19 13:27:38;;;;;;;5.43;2.97;;;6.30;99.90;;;;;;5143421;27;20282;-75
2021/12/19 13:30:10;;;;;;;6.03;2.50;;;6.30;99.90;;;;;;5131388;27;20216;-73
2021/12/19 13:32:39;;;;;;;8.30;2.80;;;6.30;99.90;;;;;;5142571;27;20722;-72
2021/12/19 13:35:12;;;;;;;7.20;2.87;;;6.30;99.90;;;;;;5126181;27;20586;-70
2021/12/19 13:37:52;;;;;;;7.30;2.40;;;6.30;99.90;;;;;;5132888;27;20287;-69
2021/12/19 13:40:20;;;;;;;7.73;3.20;;;6.30;99.90;;;;;;5133953;27;20195;-70
2021/12/19 13:42:50;;;;;;;6.83;3.17;;;6.30;99.90;;;;;;5140805;27;20219;-70
2021/12/19 13:45:30;;;;;;;6.03;2.67;;;6.20;99.90;;;;;;5125298;27;20192;-72
2021/12/19 13:47:59;;;;;;;8.10;3.97;;;6.20;99.90;;;;;;5141842;27;20226;-71
2021/12/19 13:50:30;;;;;;;6.87;2.53;;;6.20;99.90;;;;;;5133259;27;20240;-71
2021/12/19 13:52:57;;;;;;;5.63;2.47;;;6.20;99.90;;;;;;5132428;27;20290;-70
2021/12/19 13:55:24;;;;;;;5.73;2.53;;;6.20;99.90;;;;;;5142255;27;20557;-70
2021/12/19 13:58:05;;;;;;;5.93;1.97;;;6.10;99.90;;;;;;5135223;27;20262;-72
2021/12/19 14:00:34;;;;;;;3.00;1.73;;;6.10;99.90;;;;;;5126540;27;20229;-71
2021/12/19 14:03:01;;;;;;;7.30;2.10;;;6.10;99.90;;;;;;5133222;27;20245;-71
2021/12/19 14:05:42;;;;;;;4.73;2.20;;;6.10;99.90;;;;;;5132602;27;20227;-70
2021/12/19 14:08:28;;;;;;;2.83;1.87;;;6.10;99.90;;;;;;5133419;27;20230;-72